Terminal Aerodrome Forecast
Issued by NWS Shreveport, LA

Home | Current Version | Previous Version | Text Only | Print | Product List | Glossary On
Versions: 1 2 3 4 5 6 7 8 9 10 11 12 13
000
FTUS44 KSHV 041734
TAFTXK
TAF
KTXK 041734Z 0418/0518 17008KT P6SM SCT050 SCT250
     FM050100 16006KT P6SM SCT060 SCT250
     FM051100 13005KT 5SM BR SCT015 BKN250
      TEMPO 0512/0514 3SM BR OVC015
     FM051500 15009G16KT P6SM BKN035=

USA.gov is the U.S. government's official web portal to all federal, state and local government web resources and services.